createdAt,value
2019-04-11T00:00:28.163Z,35.60
2019-04-11T00:03:00.893Z,35.50
2019-04-11T00:05:33.378Z,35.50
2019-04-11T00:08:06.023Z,35.50
2019-04-11T00:10:39.646Z,35.60
2019-04-11T00:13:18.854Z,35.60
2019-04-11T00:15:46.140Z,35.50
2019-04-11T00:18:18.666Z,35.50
2019-04-11T00:20:51.046Z,35.40
2019-04-11T00:23:23.923Z,35.40
2019-04-11T00:25:58.050Z,35.40
2019-04-11T00:28:30.438Z,35.40
2019-04-11T00:31:02.903Z,35.40
2019-04-11T00:33:35.389Z,35.40
2019-04-11T00:36:08.331Z,35.40
2019-04-11T00:38:40.792Z,35.40
2019-04-11T00:41:13.431Z,35.30
2019-04-11T00:43:46.989Z,35.30
2019-04-11T00:46:20.378Z,35.20
2019-04-11T00:48:52.903Z,35.20
2019-04-11T00:51:25.681Z,35.30
2019-04-11T00:53:58.360Z,35.10
2019-04-11T00:56:30.773Z,35.20
2019-04-11T00:59:03.190Z,35.20
2019-04-11T01:01:35.716Z,35.20
2019-04-11T01:04:08.210Z,35.30
2019-04-11T01:06:40.596Z,35.30
2019-04-11T01:09:13.035Z,35.30
2019-04-11T01:11:45.807Z,35.30
2019-04-11T01:14:18.502Z,35.30
2019-04-11T01:16:54.010Z,35.30
2019-04-11T01:19:26.873Z,35.40
2019-04-11T01:21:59.595Z,35.30
2019-04-11T01:24:32.035Z,35.20
2019-04-11T01:27:05.600Z,35.30
2019-04-11T01:29:38.177Z,35.20
2019-04-11T01:32:11.186Z,35.20
2019-04-11T01:34:44.586Z,35.20
2019-04-11T01:37:17.654Z,35.20
2019-04-11T01:39:57.315Z,35.20
2019-04-11T01:42:31.264Z,35.20
2019-04-11T01:45:05.237Z,35.20
2019-04-11T01:47:55.915Z,35.20
2019-04-11T01:50:32.805Z,35.30
2019-04-11T01:53:06.846Z,35.20
2019-04-11T01:55:39.368Z,35.30
2019-04-11T01:58:11.695Z,35.40
2019-04-11T02:00:59.030Z,35.40
2019-04-11T02:03:45.864Z,35.40
2019-04-11T02:06:18.278Z,35.40
2019-04-11T02:08:51.362Z,35.50
2019-04-11T02:11:23.877Z,35.50
2019-04-11T02:14:09.823Z,35.60
2019-04-11T02:16:30.404Z,35.60
2019-04-11T02:19:03.676Z,35.60
2019-04-11T02:21:36.387Z,35.60
2019-04-11T02:24:30.619Z,35.60
2019-04-11T02:27:16.835Z,35.60
2019-04-11T02:29:49.292Z,35.60
2019-04-11T02:32:24.870Z,35.60
2019-04-11T02:34:59.145Z,35.60
2019-04-11T02:37:31.775Z,35.60
2019-04-11T02:40:07.530Z,35.50
2019-04-11T02:42:41.143Z,35.60
2019-04-11T02:45:27.246Z,35.60
2019-04-11T02:47:48.735Z,35.60
2019-04-11T02:50:25.371Z,35.70
2019-04-11T02:52:56.722Z,35.70
2019-04-11T02:55:29.600Z,35.70
2019-04-11T02:58:03.937Z,35.60
2019-04-11T03:00:37.630Z,35.60
2019-04-11T03:03:12.841Z,35.70
2019-04-11T03:05:46.893Z,35.80
2019-04-11T03:08:20.616Z,35.80
2019-04-11T03:10:55.576Z,35.80
2019-04-11T03:13:29.294Z,35.80
2019-04-11T03:16:17.171Z,35.80
2019-04-11T03:18:54.777Z,35.90
2019-04-11T03:21:14.606Z,35.90
2019-04-11T03:23:44.415Z,35.90
2019-04-11T03:26:17.023Z,35.90
2019-04-11T03:28:54.028Z,35.90
2019-04-11T03:32:04.752Z,35.90
2019-04-11T03:35:02.923Z,35.90
2019-04-11T03:39:28.130Z,36.00
2019-04-11T03:41:59.726Z,36.00
2019-04-11T03:44:23.451Z,36.00
2019-04-11T03:47:08.302Z,36.00
2019-04-11T03:49:31.729Z,36.00
2019-04-11T03:51:59.175Z,36.00
2019-04-11T03:54:32.375Z,36.00
2019-04-11T03:57:07.701Z,35.90
2019-04-11T03:59:40.746Z,35.90
2019-04-11T04:02:15.339Z,35.90
2019-04-11T04:04:49.176Z,35.90
2019-04-11T04:07:21.588Z,36.00
2019-04-11T04:09:54.594Z,36.10
2019-04-11T04:12:27.334Z,36.60
2019-04-11T04:15:09.102Z,35.90
2019-04-11T04:48:45.507Z,39.50
2019-04-11T04:51:20.583Z,41.40
2019-04-11T04:53:52.581Z,40.40
2019-04-11T04:56:29.519Z,40.30
2019-04-11T04:58:59.070Z,39.00
2019-04-11T05:01:31.665Z,38.50
2019-04-11T05:04:04.868Z,38.10
2019-04-11T05:06:38.831Z,37.80
2019-04-11T05:09:12.847Z,37.70
2019-04-11T05:11:46.676Z,37.50
2019-04-11T05:14:20.833Z,37.30
2019-04-11T05:16:54.607Z,37.20
2019-04-11T05:19:28.539Z,37.10
2019-04-11T05:22:01.840Z,37.20
2019-04-11T05:24:34.841Z,37.00
2019-04-11T05:27:08.308Z,37.00
2019-04-11T05:29:41.749Z,37.00
2019-04-11T05:32:15.432Z,37.00
2019-04-11T05:34:49.033Z,36.90
2019-04-11T05:37:22.733Z,37.00
2019-04-11T05:39:55.259Z,37.00
2019-04-11T05:42:27.652Z,36.90
2019-04-11T05:45:00.085Z,36.90
2019-04-11T05:47:32.493Z,37.00
2019-04-11T05:50:31.927Z,36.90
2019-04-11T05:53:05.591Z,36.90
2019-04-11T05:55:43.283Z,36.90
2019-04-11T05:58:15.997Z,36.80
2019-04-11T06:00:56.397Z,36.80
2019-04-11T06:03:30.258Z,36.80
2019-04-11T06:06:40.188Z,36.90
2019-04-11T06:09:16.736Z,36.80
2019-04-11T06:11:57.966Z,36.90
2019-04-11T06:14:39.723Z,37.00
2019-04-11T06:17:15.809Z,37.60
2019-04-11T06:20:24.845Z,37.00
2019-04-11T06:23:03.888Z,37.00
2019-04-11T06:25:59.202Z,36.90
2019-04-11T06:28:33.721Z,36.90
2019-04-11T06:31:34.659Z,37.00
2019-04-11T06:34:07.804Z,37.00
2019-04-11T06:36:50.139Z,36.90
2019-04-11T06:39:43.284Z,37.00
2019-04-11T06:42:27.513Z,36.90
2019-04-11T06:45:17.657Z,36.90
2019-04-11T06:48:15.736Z,36.90
2019-04-11T06:51:09.941Z,37.00
2019-04-11T06:53:49.020Z,37.00
2019-04-11T06:56:38.485Z,37.00
2019-04-11T06:59:18.428Z,37.00
2019-04-11T07:01:51.061Z,36.80
2019-04-11T07:04:27.411Z,36.80
2019-04-11T07:07:00.356Z,36.90
2019-04-11T07:09:51.705Z,36.90
2019-04-11T07:12:36.433Z,36.90
2019-04-11T07:15:18.722Z,36.70
2019-04-11T07:18:26.820Z,36.70
2019-04-11T07:21:04.579Z,36.70
2019-04-11T07:23:55.527Z,36.80
2019-04-11T07:26:37.466Z,36.90
2019-04-11T07:29:33.730Z,36.90
2019-04-11T07:32:09.415Z,37.00
2019-04-11T07:35:00.066Z,37.20
2019-04-11T07:37:36.720Z,37.10
2019-04-11T07:40:36.627Z,37.20
2019-04-11T07:43:29.699Z,37.10
2019-04-11T07:46:25.032Z,37.20
2019-04-11T07:49:00.035Z,37.80
2019-04-11T07:51:42.970Z,37.20
2019-04-11T07:54:18.089Z,36.60
2019-04-11T07:57:06.237Z,37.40
2019-04-11T07:59:57.913Z,36.40
2019-04-11T08:02:49.293Z,36.50
2019-04-11T08:05:39.235Z,36.90
2019-04-11T08:08:30.253Z,36.10
2019-04-11T08:11:13.999Z,35.70
2019-04-11T08:14:06.359Z,35.60
2019-04-11T08:16:57.469Z,35.90
2019-04-11T08:19:49.003Z,36.20
2019-04-11T08:22:43.340Z,36.20
2019-04-11T08:25:27.527Z,36.20
2019-04-11T08:28:04.215Z,36.20
2019-04-11T08:30:41.897Z,36.10
2019-04-11T08:33:14.409Z,35.60
2019-04-11T08:36:13.680Z,35.60
2019-04-11T08:38:46.720Z,35.50
2019-04-11T08:41:47.560Z,35.70
2019-04-11T08:44:30.363Z,35.50
2019-04-11T08:47:07.869Z,35.40
2019-04-11T08:49:42.779Z,35.60
2019-04-11T08:52:49.356Z,35.70
2019-04-11T08:55:25.152Z,35.90
2019-04-11T08:58:12.077Z,36.10
2019-04-11T09:01:00.577Z,35.90
2019-04-11T09:04:03.024Z,35.50
2019-04-11T09:06:32.577Z,35.20
2019-04-11T09:09:23.913Z,35.20
2019-04-11T09:11:58.777Z,35.30
2019-04-11T09:14:48.908Z,35.70
2019-04-11T09:17:28.150Z,36.10
2019-04-11T09:20:19.708Z,35.50
2019-04-11T09:22:55.475Z,35.70
2019-04-11T09:26:03.550Z,35.30
2019-04-11T09:28:57.691Z,35.20
2019-04-11T09:31:49.124Z,35.00
2019-04-11T09:34:46.533Z,34.40
2019-04-11T09:37:36.071Z,33.70
2019-04-11T09:40:36.478Z,33.90
2019-04-11T09:43:12.688Z,33.60
2019-04-11T09:46:02.430Z,33.60
2019-04-11T09:48:53.749Z,32.90
2019-04-11T09:51:38.484Z,33.00
2019-04-11T09:54:17.694Z,32.90
2019-04-11T09:57:12.135Z,33.30
2019-04-11T09:59:56.031Z,31.90
2019-04-11T10:03:02.979Z,31.60
2019-04-11T10:05:43.023Z,30.70
2019-04-11T10:08:43.663Z,30.10
2019-04-11T10:11:54.882Z,29.40
2019-04-11T10:14:29.553Z,29.10
2019-04-11T10:17:22.694Z,29.00
2019-04-11T10:19:56.961Z,28.40
2019-04-11T10:22:47.925Z,28.20
2019-04-11T10:25:39.368Z,28.10
2019-04-11T10:28:30.783Z,28.20
2019-04-11T10:31:30.530Z,28.00
2019-04-11T10:34:25.766Z,28.10
2019-04-11T10:37:01.421Z,28.40
2019-04-11T10:39:59.849Z,28.60
2019-04-11T10:42:32.905Z,29.00
2019-04-11T10:45:28.964Z,29.40
2019-04-11T10:48:06.764Z,29.10
2019-04-11T10:50:56.732Z,29.10
2019-04-11T10:53:29.115Z,28.50
2019-04-11T10:56:24.482Z,28.40
2019-04-11T10:58:59.540Z,27.60
2019-04-11T11:02:04.385Z,27.60
2019-04-11T11:04:46.699Z,27.40
2019-04-11T11:07:21.899Z,27.40
2019-04-11T11:09:58.531Z,27.40
2019-04-11T11:12:47.541Z,27.00
2019-04-11T11:15:25.796Z,26.90
2019-04-11T11:21:02.608Z,26.90
2019-04-11T11:23:52.495Z,27.50
2019-04-11T11:26:32.062Z,27.10
2019-04-11T11:29:26.742Z,27.40
2019-04-11T11:32:25.181Z,27.40
2019-04-11T11:35:27.614Z,27.50
2019-04-11T11:38:01.927Z,27.60
2019-04-11T11:40:52.382Z,27.90
2019-04-11T11:43:30.988Z,28.00
2019-04-11T11:46:25.719Z,28.20
2019-04-11T11:49:02.797Z,28.20
2019-04-11T11:52:03.568Z,28.40
2019-04-11T11:54:39.823Z,28.30
2019-04-11T11:57:18.265Z,28.50
2019-04-11T11:59:55.174Z,28.50
2019-04-11T12:02:32.720Z,28.60
2019-04-11T12:05:26.690Z,28.60
2019-04-11T12:08:18.212Z,28.50
2019-04-11T12:10:53.420Z,28.80
2019-04-11T12:13:45.507Z,28.60
2019-04-11T12:16:36.272Z,28.70
2019-04-11T12:19:22.242Z,28.80
2019-04-11T12:21:56.040Z,28.70
2019-04-11T12:24:43.056Z,28.80
2019-04-11T12:27:37.270Z,29.10
2019-04-11T12:30:33.623Z,28.90
2019-04-11T12:33:23.495Z,28.90
2019-04-11T12:36:10.466Z,29.00
2019-04-11T12:39:01.799Z,28.80
2019-04-11T12:41:54.475Z,29.20
2019-04-11T12:44:51.671Z,29.00
2019-04-11T12:47:42.315Z,28.90
2019-04-11T12:50:33.641Z,29.50
2019-04-11T12:53:07.567Z,29.30
2019-04-11T12:55:58.429Z,29.40
2019-04-11T12:58:34.702Z,29.30
2019-04-11T13:01:45.531Z,29.50
2019-04-11T13:04:31.523Z,29.40
2019-04-11T13:07:22.888Z,29.40
2019-04-11T13:09:57.812Z,29.70
2019-04-11T13:12:48.184Z,29.90
2019-04-11T13:15:32.486Z,29.60
2019-04-11T13:18:26.580Z,29.60
2019-04-11T13:21:20.966Z,29.50
2019-04-11T13:24:11.950Z,29.40
2019-04-11T13:27:06.119Z,29.50
2019-04-11T13:30:03.721Z,29.60
2019-04-11T13:32:47.814Z,29.50
2019-04-11T13:35:39.905Z,29.80
2019-04-11T13:38:20.656Z,29.70
2019-04-11T13:41:20.421Z,29.50
2019-04-11T13:43:58.879Z,29.60
2019-04-11T13:46:50.260Z,29.60
2019-04-11T13:49:50.623Z,29.60
2019-04-11T13:52:36.825Z,29.70
2019-04-11T13:55:43.518Z,29.20
2019-04-11T13:58:33.331Z,29.30
2019-04-11T14:01:13.629Z,29.00
2019-04-11T14:06:26.399Z,28.90
2019-04-11T14:09:17.712Z,28.70
2019-04-11T14:11:51.729Z,28.70
2019-04-11T14:14:32.924Z,28.90
2019-04-11T14:17:17.986Z,28.60
2019-04-11T14:19:58.835Z,28.60
2019-04-11T14:22:38.148Z,28.50
2019-04-11T14:25:36.115Z,28.70
2019-04-11T14:28:08.970Z,28.50
2019-04-11T14:31:03.325Z,28.70
2019-04-11T14:33:36.729Z,28.90
2019-04-11T14:36:33.654Z,28.70
2019-04-11T14:39:06.011Z,28.80
2019-04-11T14:41:59.720Z,28.70
2019-04-11T14:44:31.808Z,28.60
2019-04-11T14:47:23.095Z,28.70
2019-04-11T14:50:01.206Z,28.40
2019-04-11T14:52:58.892Z,28.60
2019-04-11T14:55:36.766Z,28.40
2019-04-11T14:58:27.465Z,28.70
2019-04-11T15:00:59.957Z,28.80
2019-04-11T15:03:49.644Z,28.80
2019-04-11T15:06:31.941Z,28.70
2019-04-11T15:09:33.903Z,28.90
2019-04-11T15:12:26.087Z,29.00
2019-04-11T15:15:22.011Z,28.90
2019-04-11T15:17:56.627Z,28.70
2019-04-11T15:20:55.200Z,28.80
2019-04-11T15:23:37.706Z,29.00
2019-04-11T15:26:29.545Z,29.00
2019-04-11T15:29:19.788Z,28.70
2019-04-11T15:32:09.754Z,28.70
2019-04-11T15:34:47.832Z,28.80
2019-04-11T15:37:47.874Z,28.60
2019-04-11T15:40:32.990Z,28.70
2019-04-11T15:43:42.067Z,28.60
2019-04-11T15:46:22.174Z,28.50
2019-04-11T15:49:20.538Z,28.60
2019-04-11T15:51:50.583Z,28.70
2019-04-11T15:54:42.987Z,28.90
2019-04-11T15:57:28.230Z,28.30
2019-04-11T16:00:28.459Z,28.70
2019-04-11T16:03:15.371Z,28.90
2019-04-11T16:06:12.871Z,29.00
2019-04-11T16:09:00.866Z,29.00
2019-04-11T16:11:53.772Z,29.00
2019-04-11T16:14:28.129Z,29.10
2019-04-11T16:17:34.585Z,29.30
2019-04-11T16:20:12.405Z,29.20
2019-04-11T16:23:15.923Z,29.30
2019-04-11T16:25:53.298Z,29.40
2019-04-11T16:28:59.714Z,29.40
2019-04-11T16:31:40.125Z,29.50
2019-04-11T16:34:25.942Z,29.40
2019-04-11T16:37:00.929Z,29.40
2019-04-11T16:39:53.486Z,29.40
2019-04-11T16:42:32.098Z,28.80
2019-04-11T16:45:25.023Z,29.30
2019-04-11T16:48:03.084Z,29.40
2019-04-11T16:50:35.413Z,29.30
2019-04-11T16:53:10.509Z,29.20
2019-04-11T16:55:43.358Z,29.30
2019-04-11T16:58:19.471Z,29.40
2019-04-11T17:00:52.577Z,29.50
2019-04-11T17:03:25.775Z,29.30
2019-04-11T17:06:07.113Z,29.20
2019-04-11T17:08:58.438Z,29.10
2019-04-11T17:11:30.835Z,29.20
2019-04-11T17:14:03.209Z,29.20
2019-04-11T17:16:35.614Z,29.20
2019-04-11T17:19:08.096Z,29.30
2019-04-11T17:21:43.371Z,29.40
2019-04-11T17:24:16.755Z,29.50
2019-04-11T17:26:52.393Z,29.30
2019-04-11T17:29:24.893Z,29.30
2019-04-11T17:31:56.873Z,29.20
2019-04-11T17:34:32.154Z,29.20
2019-04-11T17:37:03.434Z,29.00
2019-04-11T17:39:36.822Z,29.00
2019-04-11T17:42:10.808Z,29.00
2019-04-11T17:44:43.834Z,29.00
2019-04-11T17:47:16.236Z,29.00
2019-04-11T17:49:48.634Z,29.00
2019-04-11T17:52:21.039Z,29.00
2019-04-11T17:54:54.296Z,29.00
2019-04-11T17:57:27.725Z,29.00
2019-04-11T18:00:00.147Z,28.90
2019-04-11T18:02:32.577Z,29.00
2019-04-11T18:05:05.018Z,28.90
2019-04-11T18:07:37.433Z,28.90
2019-04-11T18:10:11.401Z,28.90
2019-04-11T18:12:43.803Z,28.90
2019-04-11T18:15:16.182Z,28.90
2019-04-11T18:17:48.615Z,28.90
2019-04-11T18:20:21.017Z,28.90
2019-04-11T18:22:53.667Z,28.80
2019-04-11T18:25:26.048Z,28.80
2019-04-11T18:27:58.463Z,28.80
2019-04-11T18:30:30.847Z,28.90
2019-04-11T18:33:03.313Z,29.00
2019-04-11T18:35:35.696Z,29.40
2019-04-11T18:38:08.096Z,29.00
2019-04-11T18:40:40.890Z,28.90
2019-04-11T18:43:16.215Z,28.90
2019-04-11T18:45:48.639Z,28.90
2019-04-11T18:48:21.041Z,28.90
2019-04-11T18:50:53.839Z,29.00
2019-04-11T18:53:26.388Z,29.00
2019-04-11T18:56:01.482Z,29.00
2019-04-11T18:58:34.473Z,29.00
2019-04-11T19:01:09.139Z,29.00
2019-04-11T19:03:41.901Z,29.00
2019-04-11T19:06:14.347Z,29.00
2019-04-11T19:08:46.836Z,29.10
2019-04-11T19:11:19.212Z,29.10
2019-04-11T19:13:51.621Z,29.10
2019-04-11T19:16:23.997Z,29.10
2019-04-11T19:18:56.415Z,29.10
2019-04-11T19:21:28.823Z,29.20
2019-04-11T19:24:01.429Z,29.30
2019-04-11T19:26:34.865Z,29.60
2019-04-11T19:29:07.266Z,29.30
2019-04-11T19:31:41.074Z,29.20
2019-04-11T19:34:13.583Z,29.10
2019-04-11T19:36:45.965Z,29.20
2019-04-11T19:39:19.341Z,29.20
2019-04-11T19:41:51.781Z,29.20
2019-04-11T19:44:24.184Z,29.20
2019-04-11T19:46:56.557Z,29.20
2019-04-11T19:49:29.627Z,29.30
2019-04-11T19:52:03.045Z,29.30
2019-04-11T19:54:35.473Z,29.40
2019-04-11T19:57:08.041Z,29.40
2019-04-11T19:59:40.457Z,29.40
2019-04-11T20:02:12.855Z,29.30
2019-04-11T20:04:46.592Z,29.30
2019-04-11T20:07:19.277Z,29.40
2019-04-11T20:09:51.679Z,29.40
2019-04-11T20:12:24.047Z,29.40
2019-04-11T20:14:56.464Z,29.30
2019-04-11T20:17:28.835Z,29.40
2019-04-11T20:20:04.401Z,29.40
2019-04-11T20:22:39.195Z,29.40
2019-04-11T20:25:09.433Z,29.40
2019-04-11T20:27:41.832Z,29.30
2019-04-11T20:30:14.237Z,29.40
2019-04-11T20:32:46.600Z,29.40
2019-04-11T20:35:28.395Z,29.40
2019-04-11T20:37:54.317Z,29.40
2019-04-11T20:40:26.861Z,29.30
2019-04-11T20:42:59.234Z,29.40
2019-04-11T20:45:33.755Z,29.30
2019-04-11T20:48:06.129Z,29.30
2019-04-11T20:50:38.534Z,29.30
2019-04-11T20:53:12.856Z,29.40
2019-04-11T20:55:45.004Z,29.60
2019-04-11T20:58:26.808Z,29.60
2019-04-11T21:00:55.653Z,29.40
2019-04-11T21:03:29.835Z,29.40
2019-04-11T21:06:01.802Z,29.30
2019-04-11T21:08:36.559Z,29.30
2019-04-11T21:11:07.886Z,29.40
2019-04-11T21:13:40.261Z,29.40
2019-04-11T21:16:12.662Z,29.50
2019-04-11T21:18:45.037Z,29.40
2019-04-11T21:21:17.435Z,29.50
2019-04-11T21:23:49.811Z,29.60
2019-04-11T21:26:22.206Z,29.50
2019-04-11T21:28:58.587Z,29.60
2019-04-11T21:31:30.963Z,29.50
2019-04-11T21:34:02.979Z,29.50
2019-04-11T21:36:35.925Z,29.60
2019-04-11T21:39:08.939Z,29.40
2019-04-11T21:41:42.744Z,30.00
2019-04-11T21:44:16.588Z,29.50
2019-04-11T21:46:49.405Z,29.50
2019-04-11T21:49:22.044Z,29.50
2019-04-11T21:51:54.451Z,29.40
2019-04-11T21:54:26.829Z,29.40
2019-04-11T21:56:59.234Z,29.20
2019-04-11T21:59:31.618Z,29.70
2019-04-11T22:02:04.043Z,29.20
2019-04-11T22:04:36.495Z,29.10
2019-04-11T22:07:08.967Z,29.00
2019-04-11T22:09:41.355Z,29.10
2019-04-11T22:12:13.831Z,29.10
2019-04-11T22:14:46.227Z,29.00
2019-04-11T22:17:18.640Z,29.00
2019-04-11T22:19:51.026Z,28.90
2019-04-11T22:22:23.437Z,28.90
2019-04-11T22:24:55.813Z,28.90
2019-04-11T22:27:28.321Z,28.80
2019-04-11T22:30:00.706Z,28.90
2019-04-11T22:32:33.270Z,28.90
2019-04-11T22:35:05.683Z,29.40
2019-04-11T22:37:39.278Z,28.80
2019-04-11T22:40:11.659Z,28.90
2019-04-11T22:42:44.074Z,28.90
2019-04-11T22:45:17.521Z,29.00
2019-04-11T22:47:49.940Z,29.00
2019-04-11T22:50:22.331Z,29.00
2019-04-11T22:52:54.726Z,29.00
2019-04-11T22:55:27.116Z,29.00
2019-04-11T22:57:59.523Z,29.00
2019-04-11T23:00:31.902Z,29.00
2019-04-11T23:03:23.263Z,29.00
2019-04-11T23:05:55.646Z,29.00
2019-04-11T23:08:28.051Z,29.00
2019-04-11T23:11:00.373Z,28.90
2019-04-11T23:13:32.790Z,29.10
2019-04-11T23:16:05.182Z,29.00
2019-04-11T23:18:37.577Z,29.10
2019-04-11T23:21:11.830Z,29.00
2019-04-11T23:23:44.079Z,29.20
2019-04-11T23:26:16.472Z,29.00
2019-04-11T23:28:48.858Z,29.10
2019-04-11T23:31:21.235Z,29.10
2019-04-11T23:33:53.566Z,29.10
2019-04-11T23:36:25.938Z,29.10
2019-04-11T23:38:58.342Z,29.10
2019-04-11T23:41:30.729Z,29.00
2019-04-11T23:44:03.157Z,29.10
2019-04-11T23:46:35.463Z,29.10
2019-04-11T23:49:07.861Z,29.10
2019-04-11T23:51:40.244Z,29.10
2019-04-11T23:54:22.701Z,29.10
2019-04-11T23:56:46.737Z,29.20
2019-04-11T23:59:19.149Z,29.10
